Time,TemperatureF,DewpointF,PressureIn,WindDirection,WindDirectionDegrees,WindSpeedMPH,WindSpeedGustMPH,Humidity,HourlyPrecipIn,Conditions,Clouds,dailyrainin,SolarRadiationWatts/m^2,SoftwareType,DateUTC
2013-03-15 00:02:00,27.0,24.0,-100.00,SSW,192,3.0,5.0,90,0.00,,,0.03,0.000000,,2013-03-15 05:02:00,
2013-03-15 00:32:00,24.0,23.0,-100.00,NNE,15,1.0,3.0,94,0.00,,,0.03,0.000000,,2013-03-15 05:32:00,
2013-03-15 00:42:00,24.0,23.0,-100.00,NNE,15,1.0,3.0,94,0.00,,,0.03,0.000000,,2013-03-15 05:42:00,
2013-03-15 00:52:00,24.0,23.0,-100.00,NNE,15,1.0,3.0,94,0.00,,,0.03,0.000000,,2013-03-15 05:52:00,
2013-03-15 01:02:00,24.0,23.0,-100.00,NNE,15,1.0,3.0,94,0.00,,,0.03,0.000000,,2013-03-15 06:02:00,
2013-03-15 01:32:00,23.0,22.0,-100.00,South,186,1.0,3.0,95,0.00,,,0.03,0.000000,,2013-03-15 06:32:00,
2013-03-15 01:42:00,23.0,22.0,-100.00,South,186,1.0,3.0,95,0.00,,,0.03,0.000000,,2013-03-15 06:42:00,
2013-03-15 01:53:00,23.0,22.0,-100.00,South,186,1.0,3.0,95,0.00,,,0.03,0.000000,,2013-03-15 06:53:00,
2013-03-15 02:02:00,23.0,22.0,-100.00,South,186,1.0,3.0,95,0.00,,,0.03,0.000000,,2013-03-15 07:02:00,
2013-03-15 02:32:00,23.0,22.0,-100.00,SSW,193,1.0,4.0,97,0.00,,,-99.99,0.000000,,2013-03-15 07:32:00,
2013-03-15 02:42:00,23.0,22.0,-100.00,SSW,193,1.0,4.0,97,0.00,,,-99.99,0.000000,,2013-03-15 07:42:00,
2013-03-15 02:52:00,23.0,22.0,-100.00,SSW,193,1.0,4.0,97,0.00,,,-99.99,0.000000,,2013-03-15 07:52:00,
2013-03-15 03:02:00,23.0,22.0,-100.00,SSW,193,1.0,4.0,97,0.00,,,-99.99,0.000000,,2013-03-15 08:02:00,
2013-03-15 03:33:00,23.0,22.0,-100.00,SSW,201,2.0,3.0,97,0.00,,,0.03,0.000000,,2013-03-15 08:33:00,
2013-03-15 03:42:00,23.0,22.0,-100.00,SSW,201,2.0,3.0,97,0.00,,,0.03,0.000000,,2013-03-15 08:42:00,
2013-03-15 03:52:00,23.0,22.0,-100.00,SSW,201,2.0,3.0,97,0.00,,,0.03,0.000000,,2013-03-15 08:52:00,
2013-03-15 04:02:00,23.0,22.0,-100.00,SSW,201,2.0,3.0,97,0.00,,,0.03,0.000000,,2013-03-15 09:02:00,
2013-03-15 04:33:00,24.0,23.0,-100.00,SW,226,1.0,2.0,96,0.00,,,0.03,0.000000,,2013-03-15 09:33:00,
2013-03-15 04:43:00,24.0,23.0,-100.00,SW,226,1.0,2.0,96,0.00,,,0.03,0.000000,,2013-03-15 09:43:00,
2013-03-15 04:53:00,24.0,23.0,-100.00,SW,226,1.0,2.0,96,0.00,,,0.03,0.000000,,2013-03-15 09:53:00,
2013-03-15 05:03:00,24.0,23.0,-100.00,SW,226,1.0,2.0,96,0.00,,,0.03,0.000000,,2013-03-15 10:03:00,
2013-03-15 05:33:00,26.0,25.0,-100.00,WSW,256,0.0,4.0,94,0.00,,,0.03,0.000000,,2013-03-15 10:33:00,
2013-03-15 05:43:00,26.0,25.0,-100.00,WSW,256,0.0,4.0,94,0.00,,,0.03,0.000000,,2013-03-15 10:43:00,
2013-03-15 05:52:00,26.0,25.0,-100.00,WSW,256,0.0,4.0,94,0.00,,,0.03,0.000000,,2013-03-15 10:52:00,
2013-03-15 06:03:00,26.0,25.0,-100.00,WSW,256,0.0,4.0,94,0.00,,,0.03,0.000000,,2013-03-15 11:03:00,
2013-03-15 06:32:00,28.0,26.0,-100.00,SSE,158,2.0,3.0,92,0.00,,,0.03,0.000000,,2013-03-15 11:32:00,
2013-03-15 06:42:00,28.0,26.0,-100.00,SSE,158,2.0,3.0,92,0.00,,,0.03,0.000000,,2013-03-15 11:42:00,
2013-03-15 06:52:00,28.0,26.0,-100.00,SSE,158,2.0,3.0,92,0.00,,,0.03,0.000000,,2013-03-15 11:52:00,
2013-03-15 07:02:00,28.0,26.0,-100.00,SSE,158,2.0,3.0,92,0.00,,,0.03,0.000000,,2013-03-15 12:02:00,
2013-03-15 07:32:00,29.0,27.0,-100.00,NNW,337,2.0,4.0,94,0.00,,,0.03,0.000000,,2013-03-15 12:32:00,
2013-03-15 07:42:00,29.0,27.0,-100.00,NNW,337,2.0,4.0,94,0.00,,,0.03,0.000000,,2013-03-15 12:42:00,
2013-03-15 07:52:00,29.0,27.0,-100.00,NNW,337,2.0,4.0,94,0.00,,,0.03,0.000000,,2013-03-15 12:52:00,
2013-03-15 08:02:00,29.0,27.0,-100.00,NNW,337,2.0,4.0,94,0.00,,,0.03,0.000000,,2013-03-15 13:02:00,
2013-03-15 08:32:00,29.0,29.0,-100.00,NNE,13,2.0,4.0,98,0.03,,,0.06,7.000000,,2013-03-15 13:32:00,
2013-03-15 08:42:00,29.0,29.0,-100.00,NNE,13,2.0,4.0,98,0.03,,,0.06,7.000000,,2013-03-15 13:42:00,
2013-03-15 08:52:00,29.0,29.0,-100.00,NNE,13,2.0,4.0,98,0.03,,,0.06,7.000000,,2013-03-15 13:52:00,
2013-03-15 09:02:00,29.0,29.0,-100.00,NNE,13,2.0,4.0,98,0.03,,,0.06,7.000000,,2013-03-15 14:02:00,
2013-03-15 09:33:00,31.0,29.0,-100.00,North,2,1.0,3.0,94,0.02,,,0.07,40.000000,,2013-03-15 14:33:00,
2013-03-15 09:42:00,31.0,29.0,-100.00,North,2,1.0,3.0,94,0.02,,,0.07,40.000000,,2013-03-15 14:42:00,
2013-03-15 09:53:00,31.0,29.0,-100.00,North,2,1.0,3.0,94,0.02,,,0.07,40.000000,,2013-03-15 14:53:00,
2013-03-15 10:02:00,31.0,29.0,-100.00,North,2,1.0,3.0,94,0.02,,,0.07,40.000000,,2013-03-15 15:02:00,
2013-03-15 10:33:00,32.0,30.0,-100.00,North,6,3.0,6.0,91,0.01,,,0.07,66.000000,,2013-03-15 15:33:00,
2013-03-15 10:43:00,32.0,30.0,-100.00,North,6,3.0,6.0,91,0.01,,,0.07,66.000000,,2013-03-15 15:43:00,
2013-03-15 10:53:00,32.0,30.0,-100.00,North,6,3.0,6.0,91,0.01,,,0.07,66.000000,,2013-03-15 15:53:00,
2013-03-15 11:03:00,32.0,30.0,-100.00,North,6,3.0,6.0,91,0.01,,,0.07,66.000000,,2013-03-15 16:03:00,
2013-03-15 11:32:00,35.0,31.0,-100.00,NNE,23,3.0,6.0,86,0.02,,,0.08,184.000000,,2013-03-15 16:32:00,
2013-03-15 11:42:00,35.0,31.0,-100.00,NNE,23,3.0,6.0,86,0.02,,,0.08,184.000000,,2013-03-15 16:42:00,
2013-03-15 11:52:00,35.0,31.0,-100.00,NNE,23,3.0,6.0,86,0.02,,,0.08,184.000000,,2013-03-15 16:52:00,
2013-03-15 12:02:00,35.0,31.0,-100.00,NNE,23,3.0,6.0,86,0.02,,,0.08,184.000000,,2013-03-15 17:02:00,
2013-03-15 12:32:00,38.0,31.0,-100.00,ENE,64,4.0,9.0,76,0.01,,,0.09,321.000000,,2013-03-15 17:32:00,
2013-03-15 12:43:00,38.0,31.0,-100.00,ENE,64,4.0,9.0,76,0.01,,,0.09,321.000000,,2013-03-15 17:43:00,
2013-03-15 12:53:00,38.0,31.0,-100.00,ENE,64,4.0,9.0,76,0.01,,,0.09,321.000000,,2013-03-15 17:53:00,
2013-03-15 13:02:00,38.0,31.0,-100.00,ENE,64,4.0,9.0,76,0.01,,,0.09,321.000000,,2013-03-15 18:02:00,
2013-03-15 13:32:00,39.0,30.0,-100.00,ENE,62,6.0,10.0,70,0.00,,,0.09,348.000000,,2013-03-15 18:32:00,
2013-03-15 13:42:00,39.0,30.0,-100.00,ENE,62,6.0,10.0,70,0.00,,,0.09,348.000000,,2013-03-15 18:42:00,
2013-03-15 13:52:00,39.0,30.0,-100.00,ENE,62,6.0,10.0,70,0.00,,,0.09,348.000000,,2013-03-15 18:52:00,
2013-03-15 14:02:00,39.0,30.0,-100.00,ENE,62,6.0,10.0,70,0.00,,,0.09,348.000000,,2013-03-15 19:02:00,
2013-03-15 14:32:00,38.0,28.0,-100.00,ENE,76,5.0,13.0,68,0.00,,,-99.99,285.000000,,2013-03-15 19:32:00,
2013-03-15 14:42:00,38.0,28.0,-100.00,ENE,76,5.0,13.0,68,0.00,,,-99.99,285.000000,,2013-03-15 19:42:00,
2013-03-15 14:52:00,38.0,28.0,-100.00,ENE,76,5.0,13.0,68,0.00,,,-99.99,285.000000,,2013-03-15 19:52:00,
2013-03-15 15:02:00,38.0,28.0,-100.00,ENE,76,5.0,13.0,68,0.00,,,-99.99,285.000000,,2013-03-15 20:02:00,
2013-03-15 15:32:00,37.0,29.0,-100.00,NE,48,5.0,13.0,73,0.00,,,0.09,153.000000,,2013-03-15 20:32:00,
2013-03-15 15:42:00,37.0,29.0,-100.00,NE,48,5.0,13.0,73,0.00,,,0.09,153.000000,,2013-03-15 20:42:00,
2013-03-15 15:52:00,37.0,29.0,-100.00,NE,48,5.0,13.0,73,0.00,,,0.09,153.000000,,2013-03-15 20:52:00,
2013-03-15 16:02:00,37.0,29.0,-100.00,NE,48,5.0,13.0,73,0.00,,,0.09,153.000000,,2013-03-15 21:02:00,
2013-03-15 16:33:00,35.0,28.0,-100.00,ENE,69,5.0,11.0,76,0.00,,,0.09,83.000000,,2013-03-15 21:33:00,
2013-03-15 16:43:00,35.0,28.0,-100.00,ENE,69,5.0,11.0,76,0.00,,,0.09,83.000000,,2013-03-15 21:43:00,
2013-03-15 16:53:00,35.0,28.0,-100.00,ENE,69,5.0,11.0,76,0.00,,,0.09,83.000000,,2013-03-15 21:53:00,
2013-03-15 17:03:00,35.0,28.0,-100.00,ENE,69,5.0,11.0,76,0.00,,,0.09,83.000000,,2013-03-15 22:03:00,
2013-03-15 17:33:00,35.0,28.0,-100.00,ENE,65,5.0,9.0,76,0.00,,,0.09,68.000000,,2013-03-15 22:33:00,
2013-03-15 17:42:00,35.0,28.0,-100.00,ENE,65,5.0,9.0,76,0.00,,,0.09,68.000000,,2013-03-15 22:42:00,
2013-03-15 17:53:00,35.0,28.0,-100.00,ENE,65,5.0,9.0,76,0.00,,,0.09,68.000000,,2013-03-15 22:53:00,
2013-03-15 18:02:00,35.0,28.0,-100.00,ENE,65,5.0,9.0,76,0.00,,,0.09,68.000000,,2013-03-15 23:02:00,
2013-03-15 18:32:00,33.0,27.0,-100.00,ENE,60,4.0,10.0,77,0.00,,,0.09,38.000000,,2013-03-15 23:32:00,
2013-03-15 18:42:00,33.0,27.0,-100.00,ENE,60,4.0,10.0,77,0.00,,,0.09,38.000000,,2013-03-15 23:42:00,
2013-03-15 18:53:00,33.0,27.0,-100.00,ENE,60,4.0,10.0,77,0.00,,,0.09,38.000000,,2013-03-15 23:53:00,
2013-03-15 19:02:00,33.0,27.0,-100.00,ENE,60,4.0,10.0,77,0.00,,,0.09,38.000000,,2013-03-16 00:02:00,
2013-03-15 19:32:00,31.0,27.0,-100.00,ENE,78,4.0,11.0,85,0.01,,,0.10,12.000000,,2013-03-16 00:32:00,
2013-03-15 19:42:00,31.0,27.0,-100.00,ENE,78,4.0,11.0,85,0.01,,,0.10,12.000000,,2013-03-16 00:42:00,
2013-03-15 19:52:00,31.0,27.0,-100.00,ENE,78,4.0,11.0,85,0.01,,,0.10,12.000000,,2013-03-16 00:52:00,
2013-03-15 20:02:00,31.0,27.0,-100.00,ENE,78,4.0,11.0,85,0.01,,,0.10,12.000000,,2013-03-16 01:02:00,
2013-03-15 20:32:00,30.0,29.0,-100.00,NE,56,3.0,7.0,97,0.02,,,0.12,0.000000,,2013-03-16 01:32:00,
2013-03-15 20:42:00,30.0,29.0,-100.00,NE,56,3.0,7.0,97,0.02,,,0.12,0.000000,,2013-03-16 01:42:00,
2013-03-15 20:53:00,30.0,29.0,-100.00,NE,56,3.0,7.0,97,0.02,,,0.12,0.000000,,2013-03-16 01:53:00,
2013-03-15 21:02:00,30.0,29.0,-100.00,NE,56,3.0,7.0,97,0.02,,,0.12,0.000000,,2013-03-16 02:02:00,
2013-03-15 21:33:00,30.0,30.0,-100.00,NNE,17,4.0,8.0,99,0.04,,,0.16,0.000000,,2013-03-16 02:33:00,
2013-03-15 21:43:00,30.0,30.0,-100.00,NNE,17,4.0,8.0,99,0.04,,,0.16,0.000000,,2013-03-16 02:43:00,
2013-03-15 21:52:00,30.0,30.0,-100.00,NNE,17,4.0,8.0,99,0.04,,,0.16,0.000000,,2013-03-16 02:52:00,
2013-03-15 22:02:00,30.0,30.0,-100.00,NNE,17,4.0,8.0,99,0.04,,,0.16,0.000000,,2013-03-16 03:02:00,
2013-03-15 22:33:00,29.0,29.0,-100.00,NE,46,3.0,7.0,100,0.06,,,0.22,0.000000,,2013-03-16 03:33:00,
2013-03-15 22:43:00,29.0,29.0,-100.00,NE,46,3.0,7.0,100,0.06,,,0.22,0.000000,,2013-03-16 03:43:00,
2013-03-15 22:53:00,29.0,29.0,-100.00,NE,46,3.0,7.0,100,0.06,,,0.22,0.000000,,2013-03-16 03:53:00,
2013-03-15 23:02:00,29.0,29.0,-100.00,NE,46,3.0,7.0,100,0.06,,,0.22,0.000000,,2013-03-16 04:02:00,
2013-03-15 23:33:00,29.0,29.0,-100.00,NE,46,2.0,9.0,100,0.10,,,0.32,0.000000,,2013-03-16 04:33:00,
2013-03-15 23:43:00,29.0,29.0,-100.00,NE,46,2.0,9.0,100,0.10,,,0.32,0.000000,,2013-03-16 04:43:00,
2013-03-15 23:53:00,29.0,29.0,-100.00,NE,46,2.0,9.0,100,0.10,,,0.32,0.000000,,2013-03-16 04:53:00,